createdAt,value
2018-02-17T00:01:08.481Z,74.25
2018-02-17T00:03:36.842Z,78.40
2018-02-17T00:06:08.823Z,75.45
2018-02-17T00:08:38.707Z,91.78
2018-02-17T00:11:10.678Z,88.43
2018-02-17T00:13:43.637Z,87.22
2018-02-17T00:16:14.001Z,83.12
2018-02-17T00:18:41.646Z,88.97
2018-02-17T00:21:10.040Z,71.45
2018-02-17T00:23:41.039Z,70.35
2018-02-17T00:26:12.247Z,78.43
2018-02-17T00:28:44.993Z,95.32
2018-02-17T00:31:13.467Z,65.55
2018-02-17T00:33:42.859Z,90.47
2018-02-17T00:36:11.463Z,79.97
2018-02-17T00:38:40.504Z,92.20
2018-02-17T00:41:08.472Z,79.00
2018-02-17T00:43:41.417Z,76.22
2018-02-17T00:46:10.351Z,89.20
2018-02-17T00:48:41.577Z,87.57
2018-02-17T00:51:10.400Z,94.35
2018-02-17T00:53:38.021Z,87.45
2018-02-17T00:56:10.402Z,95.78
2018-02-17T00:58:39.393Z,80.65
2018-02-17T01:01:13.069Z,101.62
2018-02-17T01:03:40.653Z,86.80
2018-02-17T01:08:44.345Z,79.12
2018-02-17T01:11:17.343Z,75.70
2018-02-17T01:13:45.787Z,79.78
2018-02-17T01:16:15.667Z,79.65
2018-02-17T01:18:46.990Z,79.35
2018-02-17T01:21:18.064Z,63.65
2018-02-17T01:23:57.081Z,71.18
2018-02-17T01:26:26.154Z,64.15
2018-02-17T01:28:54.480Z,72.68
2018-02-17T01:31:25.216Z,60.67
2018-02-17T01:36:46.165Z,62.45
2018-02-17T01:39:15.844Z,61.72
2018-02-17T01:41:46.583Z,55.12
2018-02-17T01:44:14.240Z,62.08
2018-02-17T01:46:45.396Z,57.78
2018-02-17T01:49:13.860Z,66.15
2018-02-17T01:51:44.028Z,61.80
2018-02-17T01:54:12.548Z,62.00
2018-02-17T01:56:41.763Z,59.47
2018-02-17T01:59:09.383Z,56.22
2018-02-17T02:01:39.495Z,58.72
2018-02-17T02:04:09.525Z,46.35
2018-02-17T02:06:38.737Z,52.28
2018-02-17T02:09:12.944Z,49.25
2018-02-17T02:11:42.952Z,50.40
2018-02-17T02:14:14.916Z,38.38
2018-02-17T02:16:43.463Z,50.05
2018-02-17T02:19:11.947Z,45.33
2018-02-17T02:21:42.990Z,46.88
2018-02-17T02:24:11.018Z,47.17
2018-02-17T02:26:40.604Z,49.83
2018-02-17T02:29:09.903Z,49.13
2018-02-17T02:31:39.056Z,65.40
2018-02-17T02:34:06.716Z,54.20
2018-02-17T02:36:43.741Z,53.15
2018-02-17T02:39:13.754Z,53.47
2018-02-17T02:41:46.531Z,48.22
2018-02-17T02:44:15.344Z,45.20
2018-02-17T02:46:46.016Z,51.55
2018-02-17T02:49:13.658Z,48.22
2018-02-17T02:51:42.254Z,49.33
2018-02-17T02:54:10.641Z,51.53
2018-02-17T02:56:39.045Z,46.33
2018-02-17T02:59:07.788Z,44.58
2018-02-17T03:01:37.608Z,50.30
2018-02-17T03:04:07.036Z,51.78
2018-02-17T03:06:36.984Z,52.25
2018-02-17T03:09:08.597Z,45.33
2018-02-17T03:11:36.196Z,36.92
2018-02-17T03:14:04.547Z,46.08
2018-02-17T03:16:32.463Z,41.88
2018-02-17T03:19:08.084Z,41.58
2018-02-17T03:21:38.187Z,44.53
2018-02-17T03:24:15.690Z,44.95
2018-02-17T03:26:43.311Z,42.75
2018-02-17T03:29:13.858Z,41.37
2018-02-17T03:31:43.681Z,42.17
2018-02-17T03:34:14.026Z,41.63
2018-02-17T03:36:42.323Z,36.40
2018-02-17T03:39:10.626Z,35.78
2018-02-17T03:41:45.484Z,35.45
2018-02-17T03:44:15.021Z,32.70
2018-02-17T03:46:45.098Z,32.05
2018-02-17T03:49:12.750Z,42.42
2018-02-17T03:51:41.722Z,37.85
2018-02-17T03:54:14.872Z,35.83
2018-02-17T03:56:42.419Z,44.47
2018-02-17T03:59:10.014Z,40.50
2018-02-17T04:01:38.336Z,36.20
2018-02-17T04:04:05.955Z,41.50
2018-02-17T04:06:34.337Z,38.33
2018-02-17T04:09:04.923Z,38.78
2018-02-17T04:11:32.590Z,36.38
2018-02-17T04:14:00.255Z,43.75
2018-02-17T04:16:28.673Z,35.88
2018-02-17T04:19:03.178Z,39.80
2018-02-17T04:21:34.108Z,43.33
2018-02-17T04:24:02.408Z,42.03
2018-02-17T04:26:33.290Z,45.40
2018-02-17T04:29:00.858Z,37.33
2018-02-17T04:31:35.007Z,42.97
2018-02-17T04:34:03.355Z,40.78
2018-02-17T04:36:35.883Z,44.55
2018-02-17T04:39:03.341Z,45.92
2018-02-17T04:41:45.678Z,45.60
2018-02-17T04:44:21.144Z,38.00
2018-02-17T04:47:02.191Z,45.25
2018-02-17T04:49:38.221Z,41.17
2018-02-17T04:52:16.688Z,45.05
2018-02-17T04:55:02.055Z,56.70
2018-02-17T05:00:21.457Z,42.85
2018-02-17T05:06:25.970Z,47.72
2018-02-17T05:09:11.827Z,51.20
2018-02-17T05:14:29.460Z,75.37
2018-02-17T05:23:05.012Z,59.15
2018-02-17T05:25:47.377Z,84.32
2018-02-17T05:28:26.792Z,54.35
2018-02-17T05:31:13.448Z,77.68
2018-02-17T05:33:48.896Z,69.40
2018-02-17T05:36:28.997Z,76.35
2018-02-17T05:38:59.874Z,77.12
2018-02-17T05:41:34.721Z,74.50
2018-02-17T05:44:04.236Z,78.05
2018-02-17T05:49:51.098Z,72.18
2018-02-17T05:52:24.648Z,66.68
2018-02-17T05:54:52.782Z,77.65
2018-02-17T05:57:24.920Z,73.68
2018-02-17T05:59:54.451Z,97.70
2018-02-17T06:02:29.229Z,76.53
2018-02-17T06:05:01.592Z,103.95
2018-02-17T06:07:30.663Z,72.22
2018-02-17T06:10:03.736Z,60.90
2018-02-17T06:12:38.319Z,68.28
2018-02-17T06:15:06.974Z,77.43
2018-02-17T06:17:36.812Z,65.80
2018-02-17T06:20:06.734Z,69.55
2018-02-17T06:22:36.413Z,78.32
2018-02-17T06:25:10.465Z,63.80
2018-02-17T06:27:38.908Z,62.75
2018-02-17T06:30:12.571Z,74.50
2018-02-17T06:35:16.779Z,85.62
2018-02-17T06:37:48.909Z,84.13
2018-02-17T06:40:20.652Z,72.93
2018-02-17T06:42:50.261Z,68.37
2018-02-17T06:45:18.184Z,72.40
2018-02-17T06:47:45.893Z,68.22
2018-02-17T06:50:16.830Z,70.45
2018-02-17T06:52:48.967Z,57.50
2018-02-17T06:55:17.532Z,54.25
2018-02-17T06:57:49.972Z,56.45
2018-02-17T07:00:17.880Z,56.00
2018-02-17T07:02:46.792Z,45.83
2018-02-17T07:05:17.157Z,48.72
2018-02-17T07:07:46.620Z,40.95
2018-02-17T07:10:15.318Z,58.72
2018-02-17T07:12:47.405Z,70.37
2018-02-17T07:18:08.935Z,40.03
2018-02-17T07:20:39.668Z,42.25
2018-02-17T07:25:45.672Z,47.20
2018-02-17T07:28:15.610Z,43.38
2018-02-17T07:30:45.557Z,46.17
2018-02-17T07:33:17.121Z,46.88
2018-02-17T07:35:46.460Z,43.78
2018-02-17T07:38:20.925Z,46.70
2018-02-17T07:40:54.446Z,39.22
2018-02-17T07:43:22.240Z,39.80
2018-02-17T07:46:00.040Z,42.53
2018-02-17T07:48:29.518Z,42.47
2018-02-17T07:50:58.464Z,37.85
2018-02-17T07:53:27.112Z,41.20
2018-02-17T07:55:56.202Z,31.90
2018-02-17T07:58:24.724Z,38.10
2018-02-17T08:00:54.784Z,30.83
2018-02-17T08:03:24.304Z,40.90
2018-02-17T08:05:52.275Z,43.50
2018-02-17T08:08:21.150Z,35.55
2018-02-17T08:10:53.173Z,42.60
2018-02-17T08:16:00.327Z,42.60
2018-02-17T08:18:28.347Z,38.35
2018-02-17T08:21:00.302Z,41.25
2018-02-17T08:23:30.160Z,37.92
2018-02-17T08:25:58.062Z,47.15
2018-02-17T08:28:30.326Z,40.38
2018-02-17T08:31:01.370Z,52.62
2018-02-17T08:33:31.105Z,44.20
2018-02-17T08:36:09.295Z,28.95
2018-02-17T08:38:40.798Z,32.25
2018-02-17T08:41:08.717Z,37.65
2018-02-17T08:43:38.985Z,43.17
2018-02-17T08:46:10.178Z,38.40
2018-02-17T08:48:38.622Z,40.05
2018-02-17T08:51:07.610Z,34.65
2018-02-17T08:53:36.624Z,25.83
2018-02-17T08:56:14.606Z,38.60
2018-02-17T08:58:42.821Z,26.58
2018-02-17T09:01:10.643Z,27.98
2018-02-17T09:03:39.331Z,44.85
2018-02-17T09:06:08.068Z,31.50
2018-02-17T09:08:39.555Z,37.80
2018-02-17T09:11:15.792Z,33.17
2018-02-17T09:13:44.790Z,39.08
2018-02-17T09:16:14.759Z,34.33
2018-02-17T09:18:42.814Z,34.05
2018-02-17T09:21:13.382Z,33.85
2018-02-17T09:23:42.196Z,30.80
2018-02-17T09:26:13.862Z,35.85
2018-02-17T09:28:41.810Z,36.78
2018-02-17T09:31:09.505Z,41.20
2018-02-17T09:33:37.328Z,38.95
2018-02-17T09:36:09.104Z,50.58
2018-02-17T09:38:37.145Z,47.70
2018-02-17T09:41:05.587Z,49.10
2018-02-17T09:43:33.573Z,42.15
2018-02-17T09:46:01.452Z,35.22
2018-02-17T09:48:30.256Z,42.65
2018-02-17T09:50:58.500Z,44.45
2018-02-17T09:53:26.892Z,39.28
2018-02-17T09:55:55.803Z,40.58
2018-02-17T09:58:24.755Z,40.28
2018-02-17T10:00:53.298Z,41.35
2018-02-17T10:05:54.076Z,35.90
2018-02-17T10:08:21.860Z,40.33
2018-02-17T10:10:51.143Z,41.85
2018-02-17T10:13:19.667Z,39.10
2018-02-17T10:15:47.908Z,32.83
2018-02-17T10:18:17.324Z,30.45
2018-02-17T10:20:46.241Z,39.45
2018-02-17T10:23:15.049Z,32.83
2018-02-17T10:25:43.915Z,32.80
2018-02-17T10:28:12.110Z,29.42
2018-02-17T10:30:40.961Z,40.30
2018-02-17T10:33:17.970Z,38.25
2018-02-17T10:35:55.739Z,35.58
2018-02-17T10:38:28.278Z,36.58
2018-02-17T10:40:56.227Z,33.78
2018-02-17T10:43:24.066Z,40.05
2018-02-17T10:45:52.665Z,43.95
2018-02-17T10:48:20.411Z,35.38
2018-02-17T10:50:48.647Z,37.05
2018-02-17T10:53:16.103Z,45.53
2018-02-17T10:55:43.564Z,41.03
2018-02-17T10:58:11.034Z,38.08
2018-02-17T11:00:38.527Z,38.05
2018-02-17T11:03:06.713Z,42.55
2018-02-17T11:05:34.184Z,40.50
2018-02-17T11:08:01.643Z,43.72
2018-02-17T11:10:29.103Z,36.50
2018-02-17T11:12:56.545Z,39.28
2018-02-17T11:15:24.016Z,46.67
2018-02-17T11:17:51.476Z,35.55
2018-02-17T11:20:18.933Z,38.25
2018-02-17T11:22:47.164Z,39.08
2018-02-17T11:25:14.634Z,30.70
2018-02-17T11:27:42.097Z,35.70
2018-02-17T11:30:09.568Z,33.72
2018-02-17T11:32:37.028Z,36.42
2018-02-17T11:35:04.906Z,45.17
2018-02-17T11:37:32.361Z,38.63
2018-02-17T11:39:59.817Z,43.87
2018-02-17T11:42:27.295Z,38.72
2018-02-17T11:44:54.755Z,43.28
2018-02-17T11:47:22.219Z,46.90
2018-02-17T11:49:50.460Z,40.63
2018-02-17T11:52:17.935Z,45.63
2018-02-17T11:54:45.403Z,46.63
2018-02-17T11:57:12.858Z,47.78
2018-02-17T11:59:40.310Z,50.47
2018-02-17T12:02:07.770Z,45.90
2018-02-17T12:04:35.220Z,42.20
2018-02-17T12:07:02.683Z,44.67
2018-02-17T12:09:30.151Z,48.22
2018-02-17T12:11:58.391Z,49.75
2018-02-17T12:14:25.870Z,54.58
2018-02-17T12:16:53.371Z,46.70
2018-02-17T12:19:21.584Z,46.63
2018-02-17T12:21:49.040Z,40.38
2018-02-17T12:24:16.488Z,44.63
2018-02-17T12:26:43.980Z,33.20
2018-02-17T12:29:12.214Z,37.75
2018-02-17T12:31:39.684Z,38.13
2018-02-17T12:34:07.153Z,36.00
2018-02-17T12:36:35.006Z,43.25
2018-02-17T12:39:02.484Z,47.92
2018-02-17T12:41:31.453Z,47.62
2018-02-17T12:43:58.933Z,46.72
2018-02-17T12:46:26.376Z,35.47
2018-02-17T12:48:53.837Z,42.53
2018-02-17T12:51:21.299Z,42.83
2018-02-17T12:53:48.763Z,42.75
2018-02-17T12:56:16.231Z,37.35
2018-02-17T12:58:44.459Z,45.12
2018-02-17T13:01:11.934Z,43.45
2018-02-17T13:03:39.383Z,39.00
2018-02-17T13:06:06.846Z,44.00
2018-02-17T13:08:34.296Z,47.17
2018-02-17T13:11:01.766Z,37.78
2018-02-17T13:13:29.224Z,42.35
2018-02-17T13:15:56.773Z,43.50
2018-02-17T13:18:24.231Z,40.08
2018-02-17T13:20:51.682Z,49.30
2018-02-17T13:23:19.155Z,43.67
2018-02-17T13:25:48.174Z,82.50
2018-02-17T13:28:25.218Z,59.03
2018-02-17T13:30:52.678Z,46.37
2018-02-17T13:33:20.133Z,38.75
2018-02-17T13:35:47.603Z,43.30
2018-02-17T13:38:15.072Z,39.83
2018-02-17T13:40:42.934Z,41.45
2018-02-17T13:43:10.404Z,36.78
2018-02-17T13:45:38.618Z,34.90
2018-02-17T13:48:06.090Z,39.80
2018-02-17T13:50:33.555Z,42.80
2018-02-17T13:53:01.791Z,41.28
2018-02-17T13:55:29.254Z,41.13
2018-02-17T13:57:56.789Z,50.05
2018-02-17T14:00:25.029Z,51.65
2018-02-17T14:02:52.480Z,40.28
2018-02-17T14:05:19.940Z,49.92
2018-02-17T14:07:47.400Z,72.03
2018-02-17T14:10:14.850Z,59.95
2018-02-17T14:12:42.306Z,61.47
2018-02-17T14:15:09.770Z,61.75
2018-02-17T14:17:37.246Z,58.47
2018-02-17T14:20:05.478Z,50.63
2018-02-17T14:22:32.935Z,49.97
2018-02-17T14:25:00.397Z,59.40
2018-02-17T14:27:27.869Z,57.88
2018-02-17T14:29:55.322Z,53.33
2018-02-17T14:32:22.784Z,37.20
2018-02-17T14:34:50.249Z,33.95
2018-02-17T14:37:17.696Z,30.27
2018-02-17T14:39:45.933Z,36.75
2018-02-17T14:42:13.382Z,43.55
2018-02-17T14:44:41.241Z,43.95
2018-02-17T14:47:08.693Z,37.88
2018-02-17T14:49:36.148Z,35.53
2018-02-17T14:52:03.612Z,42.50
2018-02-17T14:54:31.069Z,35.97
2018-02-17T14:56:58.517Z,39.22
2018-02-17T14:59:25.990Z,38.20
2018-02-17T15:01:53.481Z,40.38
2018-02-17T15:04:20.939Z,39.80
2018-02-17T15:06:48.402Z,32.00
2018-02-17T15:09:15.859Z,36.50
2018-02-17T15:11:43.347Z,26.45
2018-02-17T15:14:10.764Z,36.80
2018-02-17T15:16:38.238Z,29.15
2018-02-17T15:19:05.681Z,37.63
2018-02-17T15:21:33.155Z,32.42
2018-02-17T15:24:00.601Z,37.92
2018-02-17T15:26:28.049Z,32.67
2018-02-17T15:28:55.517Z,37.28
2018-02-17T15:31:22.983Z,32.55
2018-02-17T15:33:50.433Z,35.75
2018-02-17T15:36:17.894Z,25.37
2018-02-17T15:38:45.390Z,33.97
2018-02-17T15:41:13.665Z,26.58
2018-02-17T15:43:41.884Z,41.83
2018-02-17T15:46:09.742Z,32.75
2018-02-17T15:48:37.213Z,28.58
2018-02-17T15:51:04.671Z,28.98
2018-02-17T15:53:32.129Z,30.50
2018-02-17T15:55:59.602Z,29.85
2018-02-17T15:58:27.036Z,26.08
2018-02-17T16:00:54.506Z,36.13
2018-02-17T16:03:21.956Z,20.62
2018-02-17T16:05:49.418Z,27.25
2018-02-17T16:08:16.892Z,30.27
2018-02-17T16:10:44.333Z,26.02
2018-02-17T16:13:11.822Z,24.35
2018-02-17T16:15:40.055Z,24.52
2018-02-17T16:18:07.508Z,29.48
2018-02-17T16:20:34.964Z,23.60
2018-02-17T16:23:02.432Z,27.02
2018-02-17T16:25:29.882Z,24.00
2018-02-17T16:27:57.334Z,33.70
2018-02-17T16:30:24.803Z,26.95
2018-02-17T16:32:52.273Z,27.83
2018-02-17T16:35:19.731Z,26.12
2018-02-17T16:37:47.584Z,21.08
2018-02-17T16:40:15.054Z,25.77
2018-02-17T16:42:42.517Z,28.30
2018-02-17T16:45:09.983Z,31.90
2018-02-17T16:47:38.201Z,35.17
2018-02-17T16:50:05.669Z,40.00
2018-02-17T16:52:33.124Z,20.70
2018-02-17T16:55:00.586Z,21.05
2018-02-17T16:57:28.054Z,25.37
2018-02-17T16:59:55.523Z,24.05
2018-02-17T17:02:22.982Z,21.42
2018-02-17T17:04:50.447Z,30.73
2018-02-17T17:07:18.672Z,29.95
2018-02-17T17:09:46.125Z,31.60
2018-02-17T17:12:13.587Z,30.08
2018-02-17T17:14:41.056Z,27.48
2018-02-17T17:17:08.518Z,26.30
2018-02-17T17:19:35.983Z,24.80
2018-02-17T17:22:03.452Z,22.17
2018-02-17T17:24:30.904Z,25.37
2018-02-17T17:26:58.367Z,27.15
2018-02-17T17:29:25.827Z,29.17
2018-02-17T17:31:53.283Z,29.52
2018-02-17T17:34:20.733Z,22.17
2018-02-17T17:36:48.193Z,22.85
2018-02-17T17:39:15.652Z,32.13
2018-02-17T17:41:43.119Z,31.27
2018-02-17T17:44:11.354Z,24.27
2018-02-17T17:46:39.219Z,28.55
2018-02-17T17:49:06.691Z,31.45
2018-02-17T17:51:34.166Z,41.47
2018-02-17T17:54:01.617Z,48.45
2018-02-17T17:56:29.079Z,41.30
2018-02-17T17:58:56.525Z,33.33
2018-02-17T18:01:23.990Z,32.75
2018-02-17T18:03:51.444Z,36.38
2018-02-17T18:06:18.918Z,25.45
2018-02-17T18:08:47.131Z,31.17
2018-02-17T18:11:14.615Z,26.98
2018-02-17T18:13:42.058Z,27.02
2018-02-17T18:16:09.555Z,31.77
2018-02-17T18:18:36.977Z,22.27
2018-02-17T18:21:04.463Z,25.80
2018-02-17T18:23:31.916Z,22.95
2018-02-17T18:25:59.371Z,21.08
2018-02-17T18:28:26.817Z,24.40
2018-02-17T18:30:54.278Z,33.05
2018-02-17T18:33:21.903Z,31.62
2018-02-17T18:35:49.363Z,27.52
2018-02-17T18:38:16.812Z,24.92
2018-02-17T18:40:44.269Z,37.67
2018-02-17T18:43:11.763Z,20.85
2018-02-17T18:45:39.390Z,29.90
2018-02-17T18:48:07.730Z,33.00
2018-02-17T18:50:35.989Z,137.57
2018-02-17T18:53:04.263Z,57.42
2018-02-17T18:55:32.511Z,65.80
2018-02-17T18:57:59.979Z,74.53
2018-02-17T19:00:27.436Z,25.12
2018-02-17T19:02:54.912Z,17.48
2018-02-17T19:05:22.375Z,18.05
2018-02-17T19:07:50.592Z,17.10
2018-02-17T19:10:18.095Z,17.92
2018-02-17T19:12:45.547Z,18.17
2018-02-17T19:15:12.993Z,18.85
2018-02-17T19:17:40.859Z,17.92
2018-02-17T19:20:08.310Z,20.05
2018-02-17T19:22:35.823Z,20.33
2018-02-17T19:25:03.220Z,18.23
2018-02-17T19:27:30.695Z,16.73
2018-02-17T19:29:58.168Z,18.45
2018-02-17T19:32:25.640Z,20.33
2018-02-17T19:34:53.872Z,19.30
2018-02-17T19:37:21.323Z,21.85
2018-02-17T19:39:48.769Z,16.50
2018-02-17T19:42:16.214Z,18.42
2018-02-17T19:44:43.682Z,14.18
2018-02-17T19:47:11.130Z,14.40
2018-02-17T19:49:39.006Z,11.50
2018-02-17T19:52:07.242Z,16.67
2018-02-17T19:54:35.470Z,14.30
2018-02-17T19:57:02.951Z,17.52
2018-02-17T19:59:30.415Z,18.52
2018-02-17T20:01:58.659Z,21.65
2018-02-17T20:04:26.128Z,18.85
2018-02-17T20:06:53.580Z,25.52
2018-02-17T20:09:21.091Z,31.70
2018-02-17T20:11:48.556Z,148.45
2018-02-17T20:14:16.019Z,31.55
2018-02-17T20:16:43.461Z,23.45
2018-02-17T20:19:10.912Z,25.95
2018-02-17T20:21:38.365Z,27.40
2018-02-17T20:24:05.815Z,30.25
2018-02-17T20:26:34.044Z,21.77
2018-02-17T20:29:01.497Z,25.92
2018-02-17T20:31:28.949Z,22.58
2018-02-17T20:33:56.412Z,20.48
2018-02-17T20:36:23.870Z,21.37
2018-02-17T20:38:51.338Z,25.17
2018-02-17T20:41:18.781Z,24.55
2018-02-17T20:43:46.236Z,25.42
2018-02-17T20:46:14.090Z,113.12
2018-02-17T20:48:41.563Z,43.22
2018-02-17T20:51:09.017Z,22.02
2018-02-17T20:53:36.467Z,28.05
2018-02-17T20:56:03.923Z,21.92
2018-02-17T20:58:31.379Z,21.23
2018-02-17T21:00:58.865Z,27.05
2018-02-17T21:03:26.317Z,108.07
2018-02-17T21:05:53.769Z,86.87
2018-02-17T21:08:21.217Z,33.80
2018-02-17T21:10:48.675Z,24.75
2018-02-17T21:13:16.126Z,27.05
2018-02-17T21:15:43.626Z,231.98
2018-02-17T21:18:11.864Z,295.95
2018-02-17T21:20:39.386Z,36.05
2018-02-17T21:23:06.798Z,80.40
2018-02-17T21:25:34.259Z,63.72
2018-02-17T21:28:01.723Z,28.48
2018-02-17T21:30:29.957Z,36.72
2018-02-17T21:32:57.397Z,59.38
2018-02-17T21:35:24.884Z,50.55
2018-02-17T21:37:52.332Z,26.08
2018-02-17T21:40:19.808Z,28.85
2018-02-17T21:42:47.254Z,25.75
2018-02-17T21:45:16.239Z,27.67
2018-02-17T21:47:43.685Z,23.48
2018-02-17T21:50:11.158Z,23.15
2018-02-17T21:52:38.610Z,27.83
2018-02-17T21:55:06.056Z,24.55
2018-02-17T21:57:33.505Z,29.17
2018-02-17T22:00:01.008Z,29.65
2018-02-17T22:02:28.723Z,34.97
2018-02-17T22:04:56.183Z,29.90
2018-02-17T22:07:23.633Z,36.60
2018-02-17T22:09:51.087Z,33.95
2018-02-17T22:12:18.530Z,35.75
2018-02-17T22:14:45.977Z,46.90
2018-02-17T22:17:13.439Z,40.35
2018-02-17T22:19:40.907Z,33.25
2018-02-17T22:22:08.388Z,33.45
2018-02-17T22:24:35.846Z,32.50
2018-02-17T22:27:03.312Z,29.25
2018-02-17T22:29:30.789Z,30.98
2018-02-17T22:31:58.211Z,29.15
2018-02-17T22:34:25.669Z,27.37
2018-02-17T22:36:53.125Z,27.73
2018-02-17T22:39:20.585Z,27.80
2018-02-17T22:41:48.050Z,27.25
2018-02-17T22:44:15.492Z,27.62
2018-02-17T22:46:42.951Z,30.77
2018-02-17T22:49:11.175Z,28.70
2018-02-17T22:51:38.634Z,29.73
2018-02-17T22:54:06.500Z,32.13
2018-02-17T22:56:34.731Z,34.50
2018-02-17T22:59:02.178Z,28.02
2018-02-17T23:01:29.650Z,34.55
2018-02-17T23:03:57.114Z,34.78
2018-02-17T23:06:25.462Z,29.85
2018-02-17T23:08:52.921Z,29.50
2018-02-17T23:11:20.388Z,33.83
2018-02-17T23:13:47.834Z,34.38
2018-02-17T23:16:15.329Z,31.60
2018-02-17T23:18:42.770Z,35.42
2018-02-17T23:21:10.241Z,34.63
2018-02-17T23:23:37.704Z,32.13
2018-02-17T23:26:05.153Z,38.75
2018-02-17T23:28:32.604Z,36.38
2018-02-17T23:31:00.078Z,55.92
2018-02-17T23:33:27.531Z,45.80
2018-02-17T23:35:54.978Z,43.42
2018-02-17T23:38:22.439Z,33.20
2018-02-17T23:40:49.885Z,40.63
2018-02-17T23:43:17.347Z,34.35
2018-02-17T23:45:44.797Z,36.50
2018-02-17T23:48:12.241Z,33.38
2018-02-17T23:50:39.706Z,34.83
2018-02-17T23:53:07.177Z,30.45
2018-02-17T23:55:35.041Z,33.78
2018-02-17T23:58:02.493Z,41.53
